首页
METAR-TAF:

METAR-TAF

机场 :

内瓦, 哥伦比亚

纬度: 02-58N, 经度: 075-18W, 海拔: 439米

当前天气观测

该预报发布于37分钟前的14:00 UTC
风速3节,风向多变
温度 30°C
湿度 59%
气压 1012 hPa
能見度: 8000
少量云层高于5000英尺

METAR: SKNV 141400Z VRB03KT 8000 FEW050 30/21 Q1012

时间: 09:37 (14:37 UTC)


TAF: 丢失

超过4000个机场的气象观测和天气预报(METAR&TAF报告)。

可查询的气象台以黄色和红色小点在地图上表示。

将鼠标移到小点上方,可查看气象台名称。

然后点击查看天气观测和预报。

如需切换地图:点击带黑十字的绿色按钮放大地图;点击带横线的绿色按钮缩小地图;或者点击绿色箭头查看邻近地区的地图。


METAR-TAF: